createdAt,value
2018-08-25T00:00:16.890Z,6.45
2018-08-25T00:02:45.206Z,6.37
2018-08-25T00:05:13.561Z,8.68
2018-08-25T00:07:41.895Z,7.05
2018-08-25T00:10:10.213Z,5.08
2018-08-25T00:12:38.509Z,6.47
2018-08-25T00:15:06.864Z,6.12
2018-08-25T00:17:35.152Z,6.00
2018-08-25T00:20:03.562Z,7.00
2018-08-25T00:22:31.871Z,5.83
2018-08-25T00:25:00.187Z,4.67
2018-08-25T00:27:28.611Z,4.90
2018-08-25T00:29:57.214Z,5.00
2018-08-25T00:32:25.524Z,4.87
2018-08-25T00:34:53.887Z,5.95
2018-08-25T00:37:22.229Z,4.58
2018-08-25T00:39:50.529Z,5.40
2018-08-25T00:42:18.824Z,3.05
2018-08-25T00:44:47.247Z,6.05
2018-08-25T00:47:15.734Z,5.78
2018-08-25T00:49:44.040Z,5.83
2018-08-25T00:52:12.392Z,7.20
2018-08-25T00:54:40.713Z,8.17
2018-08-25T00:57:08.996Z,6.87
2018-08-25T00:59:37.317Z,11.10
2018-08-25T01:02:05.617Z,6.03
2018-08-25T01:04:33.945Z,6.03
2018-08-25T01:07:02.238Z,6.97
2018-08-25T01:09:30.527Z,6.67
2018-08-25T01:11:58.869Z,4.37
2018-08-25T01:14:27.285Z,12.40
2018-08-25T01:16:55.575Z,7.92
2018-08-25T01:19:23.870Z,5.10
2018-08-25T01:21:52.183Z,8.18
2018-08-25T01:24:20.556Z,5.37
2018-08-25T01:26:48.881Z,5.90
2018-08-25T01:29:17.202Z,5.37
2018-08-25T01:31:45.536Z,4.42
2018-08-25T01:34:13.872Z,7.83
2018-08-25T01:36:42.187Z,4.97
2018-08-25T01:39:10.544Z,9.23
2018-08-25T01:41:38.927Z,6.70
2018-08-25T01:44:07.360Z,5.35
2018-08-25T01:46:35.786Z,4.97
2018-08-25T01:49:04.115Z,8.33
2018-08-25T01:51:32.438Z,6.97
2018-08-25T01:54:00.870Z,9.40
2018-08-25T01:56:29.160Z,3.60
2018-08-25T01:58:57.706Z,5.67
2018-08-25T02:01:26.088Z,5.70
2018-08-25T02:03:54.488Z,8.75
2018-08-25T02:06:22.812Z,6.65
2018-08-25T02:08:51.131Z,4.08
2018-08-25T02:11:19.452Z,5.35
2018-08-25T02:13:47.771Z,4.97
2018-08-25T02:16:16.079Z,6.50
2018-08-25T02:18:44.383Z,7.60
2018-08-25T02:21:12.683Z,8.77
2018-08-25T02:23:40.980Z,5.47
2018-08-25T02:26:09.288Z,4.40
2018-08-25T02:28:37.692Z,5.60
2018-08-25T02:31:06.445Z,11.15
2018-08-25T02:33:34.764Z,11.70
2018-08-25T02:36:03.086Z,7.42
2018-08-25T02:38:31.438Z,10.55
2018-08-25T02:40:59.720Z,4.10
2018-08-25T02:43:28.063Z,7.70
2018-08-25T02:45:56.392Z,6.72
2018-08-25T02:48:24.722Z,6.05
2018-08-25T02:50:53.066Z,5.12
2018-08-25T02:53:21.392Z,8.27
2018-08-25T02:55:49.685Z,4.30
2018-08-25T02:58:18.106Z,5.73
2018-08-25T03:00:46.461Z,7.12
2018-08-25T03:03:14.782Z,10.25
2018-08-25T03:05:43.101Z,7.05
2018-08-25T03:08:11.438Z,6.12
2018-08-25T03:10:39.757Z,4.67
2018-08-25T03:13:08.340Z,4.95
2018-08-25T03:15:36.706Z,7.15
2018-08-25T03:18:05.284Z,6.17
2018-08-25T03:20:33.578Z,5.22
2018-08-25T03:23:01.875Z,7.22
2018-08-25T03:25:30.148Z,4.75
2018-08-25T03:27:58.756Z,6.08
2018-08-25T03:30:27.120Z,5.75
2018-08-25T03:32:55.476Z,6.10
2018-08-25T03:35:23.786Z,5.62
2018-08-25T03:37:52.239Z,5.85
2018-08-25T03:40:20.524Z,6.17
2018-08-25T03:42:48.883Z,4.50
2018-08-25T03:45:17.197Z,4.37
2018-08-25T03:47:45.520Z,7.43
2018-08-25T03:50:13.819Z,7.30
2018-08-25T03:52:42.121Z,7.60
2018-08-25T03:55:10.499Z,6.17
2018-08-25T03:57:38.778Z,6.20
2018-08-25T04:00:07.163Z,9.50
2018-08-25T04:02:35.697Z,7.78
2018-08-25T04:05:04.048Z,7.60
2018-08-25T04:07:32.414Z,14.37
2018-08-25T04:10:00.744Z,5.67
2018-08-25T04:12:29.062Z,7.60
2018-08-25T04:14:57.420Z,7.53
2018-08-25T04:17:25.676Z,6.87
2018-08-25T04:19:53.975Z,6.03
2018-08-25T04:22:22.342Z,11.43
2018-08-25T04:24:50.581Z,13.10
2018-08-25T04:27:19.008Z,6.40
2018-08-25T04:29:47.592Z,3.55
2018-08-25T04:32:15.878Z,3.60
2018-08-25T04:34:44.200Z,6.77
2018-08-25T04:37:12.622Z,6.50
2018-08-25T04:39:40.936Z,5.95
2018-08-25T04:42:09.267Z,6.78
2018-08-25T04:44:37.569Z,6.80
2018-08-25T04:47:06.558Z,4.83
2018-08-25T04:49:34.953Z,5.05
2018-08-25T04:52:03.284Z,7.30
2018-08-25T04:54:31.649Z,7.92
2018-08-25T04:57:00.047Z,5.55
2018-08-25T04:59:28.490Z,5.80
2018-08-25T05:01:56.819Z,5.80
2018-08-25T05:04:25.123Z,6.20
2018-08-25T05:06:53.446Z,5.65
2018-08-25T05:09:21.749Z,8.30
2018-08-25T05:11:50.052Z,7.35
2018-08-25T05:14:18.401Z,7.03
2018-08-25T05:16:46.746Z,6.55
2018-08-25T05:19:15.103Z,7.10
2018-08-25T05:21:43.404Z,6.70
2018-08-25T05:24:11.741Z,7.90
2018-08-25T05:26:40.066Z,8.58
2018-08-25T05:29:08.424Z,7.20
2018-08-25T05:31:36.730Z,6.77
2018-08-25T05:34:05.070Z,7.92
2018-08-25T05:36:33.373Z,5.65
2018-08-25T05:39:01.695Z,7.55
2018-08-25T05:41:29.989Z,5.15
2018-08-25T05:43:58.309Z,6.62
2018-08-25T05:46:26.654Z,7.35
2018-08-25T05:48:54.951Z,5.53
2018-08-25T05:51:23.263Z,5.35
2018-08-25T05:53:51.646Z,6.17
2018-08-25T05:56:19.956Z,3.20
2018-08-25T05:58:48.276Z,5.43
2018-08-25T06:01:16.702Z,4.63
2018-08-25T06:03:45.016Z,4.50
2018-08-25T06:06:13.461Z,6.70
2018-08-25T06:08:41.789Z,3.80
2018-08-25T06:11:10.137Z,9.15
2018-08-25T06:13:38.494Z,6.25
2018-08-25T06:16:06.835Z,4.15
2018-08-25T06:18:35.262Z,5.93
2018-08-25T06:21:03.661Z,4.42
2018-08-25T06:23:31.964Z,5.03
2018-08-25T06:26:00.348Z,5.85
2018-08-25T06:28:28.696Z,5.45
2018-08-25T06:30:57.031Z,6.03
2018-08-25T06:33:25.358Z,8.00
2018-08-25T06:35:53.697Z,7.20
2018-08-25T06:38:22.001Z,6.73
2018-08-25T06:40:50.357Z,6.73
2018-08-25T06:43:18.643Z,6.50
2018-08-25T06:45:51.097Z,7.27
2018-08-25T06:48:19.557Z,6.80
2018-08-25T06:50:47.853Z,9.80
2018-08-25T06:53:16.271Z,6.85
2018-08-25T06:55:44.727Z,8.20
2018-08-25T06:58:13.176Z,9.58
2018-08-25T07:00:41.456Z,8.90
2018-08-25T07:03:09.753Z,7.77
2018-08-25T07:05:38.128Z,7.30
2018-08-25T07:08:06.531Z,5.78
2018-08-25T07:10:34.838Z,6.15
2018-08-25T07:13:03.356Z,7.65
2018-08-25T07:15:31.656Z,9.05
2018-08-25T07:17:59.996Z,8.63
2018-08-25T07:20:28.321Z,5.78
2018-08-25T07:22:56.620Z,5.37
2018-08-25T07:25:24.960Z,5.90
2018-08-25T07:27:53.262Z,6.67
2018-08-25T07:30:21.606Z,6.90
2018-08-25T07:32:49.908Z,7.20
2018-08-25T07:35:18.259Z,5.72
2018-08-25T07:37:46.668Z,5.60
2018-08-25T07:40:14.956Z,5.80
2018-08-25T07:42:43.349Z,5.03
2018-08-25T07:45:11.775Z,5.17
2018-08-25T07:47:40.092Z,6.40
2018-08-25T07:50:08.889Z,7.65
2018-08-25T07:52:37.383Z,6.60
2018-08-25T07:55:11.069Z,6.20
2018-08-25T07:57:47.489Z,4.90
2018-08-25T08:00:16.132Z,5.50
2018-08-25T08:02:44.456Z,8.03
2018-08-25T08:05:12.811Z,6.92
2018-08-25T08:07:41.429Z,7.83
2018-08-25T08:10:09.975Z,8.60
2018-08-25T08:12:38.306Z,9.03
2018-08-25T08:15:06.987Z,5.40
2018-08-25T08:17:35.451Z,5.90
2018-08-25T08:20:04.023Z,4.65
2018-08-25T08:22:32.429Z,5.42
2018-08-25T08:25:00.740Z,6.30
2018-08-25T08:27:29.068Z,7.42
2018-08-25T08:29:57.398Z,5.65
2018-08-25T08:32:25.684Z,5.65
2018-08-25T08:34:54.036Z,5.27
2018-08-25T08:37:22.408Z,5.12
2018-08-25T08:39:50.754Z,5.28
2018-08-25T08:42:19.117Z,7.80
2018-08-25T08:44:47.437Z,5.58
2018-08-25T08:47:15.882Z,5.40
2018-08-25T08:49:47.278Z,6.28
2018-08-25T08:52:12.692Z,6.47
2018-08-25T08:54:41.063Z,7.60
2018-08-25T08:57:09.485Z,6.77
2018-08-25T08:59:37.805Z,8.20
2018-08-25T09:02:06.431Z,5.87
2018-08-25T09:04:34.787Z,5.90
2018-08-25T09:07:03.203Z,8.00
2018-08-25T09:09:31.520Z,8.05
2018-08-25T09:12:00.240Z,8.50
2018-08-25T09:14:28.581Z,8.00
2018-08-25T09:16:56.905Z,11.45
2018-08-25T09:19:25.285Z,11.28
2018-08-25T09:21:53.632Z,12.55
2018-08-25T09:24:21.998Z,10.35
2018-08-25T09:26:50.419Z,9.50
2018-08-25T09:29:18.687Z,13.05
2018-08-25T09:31:47.083Z,11.93
2018-08-25T09:34:15.418Z,11.37
2018-08-25T09:36:43.804Z,10.43
2018-08-25T09:39:12.109Z,11.00
2018-08-25T09:41:40.848Z,11.15
2018-08-25T09:44:09.155Z,9.70
2018-08-25T09:46:37.538Z,6.45
2018-08-25T09:49:05.871Z,7.60
2018-08-25T09:51:34.156Z,7.35
2018-08-25T09:54:02.513Z,8.55
2018-08-25T09:56:30.827Z,6.90
2018-08-25T09:58:59.479Z,4.30
2018-08-25T10:01:32.412Z,6.25
2018-08-25T10:04:00.951Z,4.30
2018-08-25T10:06:29.229Z,4.80
2018-08-25T10:08:57.529Z,4.70
2018-08-25T10:11:25.818Z,3.40
2018-08-25T10:13:54.152Z,3.20
2018-08-25T10:16:22.719Z,3.30
2018-08-25T10:18:51.053Z,5.00
2018-08-25T10:21:19.426Z,2.20
2018-08-25T10:23:47.749Z,2.25
2018-08-25T10:26:16.079Z,2.90
2018-08-25T10:28:44.418Z,4.20
2018-08-25T10:31:12.720Z,2.70
2018-08-25T10:33:41.040Z,5.30
2018-08-25T10:36:09.408Z,2.58
2018-08-25T10:38:37.790Z,4.22
2018-08-25T10:41:06.375Z,4.50
2018-08-25T10:43:34.747Z,2.10
2018-08-25T10:46:03.063Z,3.80
2018-08-25T10:48:31.376Z,2.55
2018-08-25T10:50:59.788Z,2.00
2018-08-25T10:53:28.203Z,2.08
2018-08-25T10:55:56.520Z,1.32
2018-08-25T10:58:24.860Z,2.12
2018-08-25T11:00:53.318Z,1.50
2018-08-25T11:03:21.626Z,1.40
2018-08-25T11:05:49.952Z,4.70
2018-08-25T11:08:18.293Z,4.80
2018-08-25T11:10:46.637Z,3.27
2018-08-25T11:13:15.037Z,3.25
2018-08-25T11:15:43.341Z,2.50
2018-08-25T11:18:11.720Z,4.05
2018-08-25T11:20:40.002Z,1.40
2018-08-25T11:23:08.327Z,1.30
2018-08-25T11:25:36.632Z,6.20
2018-08-25T11:28:04.931Z,2.25
2018-08-25T11:30:33.289Z,2.30
2018-08-25T11:33:01.615Z,1.10
2018-08-25T11:35:30.023Z,1.75
2018-08-25T11:37:58.487Z,2.70
2018-08-25T11:40:26.758Z,3.87
2018-08-25T11:42:55.058Z,4.07
2018-08-25T11:45:23.357Z,2.93
2018-08-25T11:47:51.686Z,2.70
2018-08-25T11:50:20.063Z,3.20
2018-08-25T11:52:48.412Z,3.70
2018-08-25T11:55:16.746Z,3.20
2018-08-25T11:57:45.040Z,2.50
2018-08-25T12:00:13.403Z,3.98
2018-08-25T12:02:41.706Z,3.60
2018-08-25T12:05:10.083Z,3.33
2018-08-25T12:07:38.547Z,3.65
2018-08-25T12:10:06.889Z,5.50
2018-08-25T12:12:35.202Z,2.30
2018-08-25T12:15:03.574Z,2.77
2018-08-25T12:17:31.969Z,2.17
2018-08-25T12:20:00.376Z,3.90
2018-08-25T12:22:28.712Z,2.50
2018-08-25T12:24:57.237Z,3.50
2018-08-25T12:27:25.573Z,3.45
2018-08-25T12:29:53.913Z,3.77
2018-08-25T12:32:22.273Z,3.70
2018-08-25T12:34:50.626Z,3.47
2018-08-25T12:37:19.036Z,5.05
2018-08-25T12:39:47.395Z,3.65
2018-08-25T12:42:15.723Z,3.98
2018-08-25T12:44:44.029Z,5.12
2018-08-25T12:47:12.344Z,4.67
2018-08-25T12:49:40.626Z,2.67
2018-08-25T12:52:09.003Z,3.35
2018-08-25T12:54:37.303Z,2.70
2018-08-25T12:57:05.654Z,5.03
2018-08-25T12:59:33.989Z,2.22
2018-08-25T13:02:02.384Z,3.52
2018-08-25T13:04:30.804Z,9.90
2018-08-25T13:06:59.154Z,5.15
2018-08-25T13:09:27.457Z,4.70
2018-08-25T13:11:55.737Z,3.12
2018-08-25T13:14:24.067Z,1.40
2018-08-25T13:16:52.541Z,5.67
2018-08-25T13:19:20.880Z,4.47
2018-08-25T13:21:49.187Z,5.20
2018-08-25T13:24:17.549Z,5.80
2018-08-25T13:26:45.895Z,5.65
2018-08-25T13:29:14.228Z,5.17
2018-08-25T13:31:42.524Z,5.40
2018-08-25T13:34:10.807Z,6.22
2018-08-25T13:36:39.132Z,8.60
2018-08-25T13:39:09.760Z,7.08
2018-08-25T13:41:38.745Z,7.50
2018-08-25T13:44:07.369Z,7.30
2018-08-25T13:46:35.630Z,9.87
2018-08-25T13:49:04.021Z,5.80
2018-08-25T13:51:32.324Z,11.40
2018-08-25T13:54:00.672Z,6.77
2018-08-25T13:56:29.644Z,6.10
2018-08-25T13:58:58.126Z,5.85
2018-08-25T14:01:26.583Z,5.85
2018-08-25T14:03:54.946Z,1.37
2018-08-25T14:06:23.345Z,4.90
2018-08-25T14:08:51.656Z,2.07
2018-08-25T14:11:20.011Z,6.60
2018-08-25T14:13:48.485Z,2.90
2018-08-25T14:16:16.969Z,2.30
2018-08-25T14:18:45.240Z,1.87
2018-08-25T14:21:13.570Z,1.60
2018-08-25T14:23:41.869Z,2.72
2018-08-25T14:26:10.391Z,2.22
2018-08-25T14:28:38.715Z,2.00
2018-08-25T14:31:07.028Z,3.12
2018-08-25T14:33:35.324Z,1.35
2018-08-25T14:36:03.738Z,1.50
2018-08-25T14:38:32.105Z,2.50
2018-08-25T14:41:00.422Z,1.70
2018-08-25T14:43:28.747Z,3.90
2018-08-25T14:45:57.328Z,3.00
2018-08-25T14:48:25.723Z,2.00
2018-08-25T14:50:54.043Z,2.43
2018-08-25T14:53:22.330Z,3.10
2018-08-25T14:55:50.627Z,1.80
2018-08-25T14:58:18.950Z,3.30
2018-08-25T15:00:47.322Z,2.70
2018-08-25T15:03:15.841Z,2.50
2018-08-25T15:05:44.135Z,2.70
2018-08-25T15:08:12.473Z,1.82
2018-08-25T15:10:40.826Z,4.97
2018-08-25T15:13:09.168Z,3.77
2018-08-25T15:15:37.490Z,3.50
2018-08-25T15:18:05.896Z,3.00
2018-08-25T15:20:34.245Z,2.83
2018-08-25T15:23:02.666Z,3.60
2018-08-25T15:25:31.002Z,2.47
2018-08-25T15:27:59.336Z,2.40
2018-08-25T15:30:27.700Z,4.67
2018-08-25T15:32:56.144Z,3.25
2018-08-25T15:35:24.462Z,3.35
2018-08-25T15:37:52.814Z,2.70
2018-08-25T15:40:21.131Z,2.90
2018-08-25T15:42:49.436Z,2.20
2018-08-25T15:45:17.741Z,3.90
2018-08-25T15:47:46.029Z,2.75
2018-08-25T15:50:14.351Z,3.35
2018-08-25T15:52:42.676Z,2.50
2018-08-25T15:55:11.162Z,2.12
2018-08-25T15:57:39.488Z,4.13
2018-08-25T16:00:07.965Z,2.63
2018-08-25T16:02:37.266Z,1.50
2018-08-25T16:05:05.831Z,1.37
2018-08-25T16:07:34.192Z,1.50
2018-08-25T16:10:03.042Z,1.87
2018-08-25T16:12:31.474Z,4.33
2018-08-25T16:14:59.753Z,6.97
2018-08-25T16:17:28.100Z,2.60
2018-08-25T16:19:56.593Z,3.10
2018-08-25T16:22:24.713Z,3.40
2018-08-25T16:24:53.152Z,4.03
2018-08-25T16:27:21.520Z,3.45
2018-08-25T16:29:49.866Z,6.80
2018-08-25T16:32:18.157Z,2.08
2018-08-25T16:34:46.558Z,1.10
2018-08-25T16:37:14.915Z,2.10
2018-08-25T16:39:43.362Z,1.92
2018-08-25T16:42:11.711Z,1.20
2018-08-25T16:44:40.328Z,1.30
2018-08-25T16:47:08.660Z,2.90
2018-08-25T16:49:37.000Z,5.03
2018-08-25T16:52:05.415Z,1.72
2018-08-25T16:54:33.839Z,2.22
2018-08-25T16:57:02.131Z,3.10
2018-08-25T16:59:30.464Z,1.90
2018-08-25T17:01:58.858Z,3.22
2018-08-25T17:04:27.387Z,2.10
2018-08-25T17:06:55.682Z,1.10
2018-08-25T17:09:24.041Z,2.60
2018-08-25T17:11:52.348Z,3.10
2018-08-25T17:14:20.667Z,1.52
2018-08-25T17:16:49.054Z,2.00
2018-08-25T17:19:17.381Z,3.30
2018-08-25T17:21:45.719Z,2.40
2018-08-25T17:24:14.071Z,1.65
2018-08-25T17:26:42.457Z,1.30
2018-08-25T17:29:10.785Z,1.00
2018-08-25T17:31:39.111Z,2.33
2018-08-25T17:34:07.457Z,2.60
2018-08-25T17:36:35.732Z,3.20
2018-08-25T17:39:06.596Z,1.60
2018-08-25T17:41:34.920Z,1.40
2018-08-25T17:44:03.235Z,1.82
2018-08-25T17:46:31.587Z,1.60
2018-08-25T17:48:59.876Z,1.60
2018-08-25T17:51:28.202Z,1.23
2018-08-25T17:53:56.524Z,1.20
2018-08-25T17:56:24.886Z,2.08
2018-08-25T17:58:53.184Z,2.08
2018-08-25T18:01:21.509Z,1.10
2018-08-25T18:03:49.895Z,5.15
2018-08-25T18:06:18.219Z,1.92
2018-08-25T18:08:46.600Z,2.80
2018-08-25T18:11:15.087Z,4.03
2018-08-25T18:13:43.503Z,2.10
2018-08-25T18:16:11.831Z,1.93
2018-08-25T18:18:40.137Z,3.30
2018-08-25T18:21:08.487Z,2.20
2018-08-25T18:23:36.829Z,2.45
2018-08-25T18:26:05.345Z,3.90
2018-08-25T18:28:33.635Z,1.27
2018-08-25T18:31:01.973Z,1.65
2018-08-25T18:33:30.325Z,2.00
2018-08-25T18:35:58.743Z,1.87
2018-08-25T18:38:27.085Z,1.85
2018-08-25T18:40:55.403Z,3.58
2018-08-25T18:43:23.755Z,1.92
2018-08-25T18:45:52.071Z,1.90
2018-08-25T18:48:20.730Z,3.20
2018-08-25T18:50:49.008Z,4.10
2018-08-25T18:53:17.328Z,2.55
2018-08-25T18:55:46.230Z,4.45
2018-08-25T18:58:14.676Z,4.30
2018-08-25T19:00:43.120Z,2.90
2018-08-25T19:03:11.475Z,3.50
2018-08-25T19:05:39.833Z,3.25
2018-08-25T19:08:08.180Z,3.02
2018-08-25T19:10:36.503Z,4.70
2018-08-25T19:13:04.900Z,1.55
2018-08-25T19:15:33.217Z,2.87
2018-08-25T19:18:01.521Z,2.90
2018-08-25T19:20:29.850Z,3.02
2018-08-25T19:22:58.153Z,1.60
2018-08-25T19:25:26.480Z,2.10
2018-08-25T19:27:54.803Z,1.52
2018-08-25T19:30:23.135Z,1.17
2018-08-25T19:32:51.505Z,3.55
2018-08-25T19:35:19.889Z,1.57
2018-08-25T19:37:48.199Z,2.10
2018-08-25T19:40:16.593Z,4.70
2018-08-25T19:42:44.959Z,2.10
2018-08-25T19:45:13.306Z,2.30
2018-08-25T19:47:41.631Z,2.10
2018-08-25T19:50:09.956Z,1.00
2018-08-25T19:52:38.350Z,1.50
2018-08-25T19:55:06.718Z,1.30
2018-08-25T19:57:35.040Z,1.20
2018-08-25T20:00:03.463Z,3.20
2018-08-25T20:02:31.800Z,3.85
2018-08-25T20:05:00.237Z,1.50
2018-08-25T20:07:28.565Z,2.70
2018-08-25T20:09:56.914Z,1.20
2018-08-25T20:12:25.267Z,3.20
2018-08-25T20:14:53.619Z,2.40
2018-08-25T20:17:22.108Z,2.12
2018-08-25T20:19:50.509Z,1.70
2018-08-25T20:22:19.973Z,2.72
2018-08-25T20:24:48.315Z,2.30
2018-08-25T20:27:16.656Z,1.62
2018-08-25T20:29:44.971Z,2.12
2018-08-25T20:32:13.382Z,1.50
2018-08-25T20:34:41.724Z,3.17
2018-08-25T20:37:10.249Z,4.40
2018-08-25T20:39:38.592Z,3.27
2018-08-25T20:42:06.937Z,5.10
2018-08-25T20:44:35.299Z,2.98
2018-08-25T20:47:03.958Z,3.60
2018-08-25T20:49:32.276Z,4.20
2018-08-25T20:52:00.626Z,3.70
2018-08-25T20:54:28.954Z,2.43
2018-08-25T20:56:57.315Z,3.37
2018-08-25T20:59:25.664Z,3.22
2018-08-25T21:01:53.977Z,4.25
2018-08-25T21:04:22.277Z,5.12
2018-08-25T21:06:50.646Z,5.30
2018-08-25T21:09:19.050Z,2.42
2018-08-25T21:11:47.411Z,3.70
2018-08-25T21:14:15.749Z,4.60
2018-08-25T21:16:44.102Z,5.85
2018-08-25T21:19:12.445Z,2.40
2018-08-25T21:21:40.780Z,3.30
2018-08-25T21:24:09.119Z,2.52
2018-08-25T21:26:37.420Z,2.87
2018-08-25T21:29:06.005Z,2.30
2018-08-25T21:31:34.295Z,2.37
2018-08-25T21:34:02.891Z,2.40
2018-08-25T21:36:31.189Z,2.92
2018-08-25T21:38:59.482Z,4.12
2018-08-25T21:41:27.794Z,4.83
2018-08-25T21:43:56.198Z,4.90
2018-08-25T21:46:24.532Z,4.40
2018-08-25T21:48:52.864Z,2.92
2018-08-25T21:51:21.188Z,3.80
2018-08-25T21:53:49.516Z,4.28
2018-08-25T21:56:17.830Z,2.55
2018-08-25T21:58:46.241Z,4.53
2018-08-25T22:01:14.611Z,4.53
2018-08-25T22:03:42.882Z,3.90
2018-08-25T22:06:11.647Z,5.87
2018-08-25T22:08:39.992Z,3.50
2018-08-25T22:11:08.394Z,4.45
2018-08-25T22:13:36.740Z,4.92
2018-08-25T22:16:05.051Z,5.35
2018-08-25T22:18:33.413Z,4.07
2018-08-25T22:21:01.750Z,4.35
2018-08-25T22:23:30.152Z,4.17
2018-08-25T22:25:58.493Z,5.33
2018-08-25T22:28:26.809Z,4.60
2018-08-25T22:30:55.272Z,4.90
2018-08-25T22:33:23.579Z,5.47
2018-08-25T22:35:51.895Z,5.70
2018-08-25T22:38:20.377Z,8.83
2018-08-25T22:40:48.696Z,8.75
2018-08-25T22:43:17.042Z,9.15
2018-08-25T22:45:45.355Z,7.42
2018-08-25T22:48:13.734Z,7.28
2018-08-25T22:50:42.112Z,6.43
2018-08-25T22:53:10.496Z,6.20
2018-08-25T22:55:38.792Z,8.80
2018-08-25T22:58:07.127Z,5.45
2018-08-25T23:00:35.446Z,7.15
2018-08-25T23:03:03.800Z,6.83
2018-08-25T23:05:32.095Z,7.35
2018-08-25T23:08:00.720Z,5.53
2018-08-25T23:10:29.101Z,8.13
2018-08-25T23:12:57.394Z,6.22
2018-08-25T23:15:25.758Z,5.60
2018-08-25T23:17:54.116Z,5.30
2018-08-25T23:20:22.464Z,6.70
2018-08-25T23:22:50.754Z,7.57
2018-08-25T23:25:19.061Z,4.42
2018-08-25T23:27:47.450Z,7.33
2018-08-25T23:30:15.818Z,4.70
2018-08-25T23:32:44.167Z,5.55
2018-08-25T23:35:12.488Z,5.55
2018-08-25T23:37:40.781Z,4.90
2018-08-25T23:40:09.339Z,6.30
2018-08-25T23:42:37.692Z,5.22
2018-08-25T23:45:06.105Z,9.48
2018-08-25T23:47:34.588Z,9.00
2018-08-25T23:50:03.116Z,9.53
2018-08-25T23:52:34.823Z,6.42
2018-08-25T23:55:03.955Z,6.72
2018-08-25T23:57:32.324Z,8.10
